sensor_id;sensor_type;location;lat;lon;timestamp;P1;durP1;ratioP1;P2;durP2;ratioP2
28437;SDS011;15667;52.376;9.708;2023-04-06T00:00:08;19.42;;;9.73;;
28437;SDS011;15667;52.376;9.708;2023-04-06T00:02:34;16.73;;;9.40;;
28437;SDS011;15667;52.376;9.708;2023-04-06T00:05:00;18.30;;;10.45;;
28437;SDS011;15667;52.376;9.708;2023-04-06T00:07:25;19.13;;;9.68;;
28437;SDS011;15667;52.376;9.708;2023-04-06T00:09:53;20.50;;;10.93;;
28437;SDS011;15667;52.376;9.708;2023-04-06T00:12:18;15.98;;;8.95;;
28437;SDS011;15667;52.376;9.708;2023-04-06T00:14:44;18.63;;;9.32;;
28437;SDS011;15667;52.376;9.708;2023-04-06T00:17:10;15.88;;;9.07;;
28437;SDS011;15667;52.376;9.708;2023-04-06T00:19:36;15.23;;;9.00;;
28437;SDS011;15667;52.376;9.708;2023-04-06T00:22:02;14.65;;;9.35;;
28437;SDS011;15667;52.376;9.708;2023-04-06T00:24:28;19.85;;;9.65;;
28437;SDS011;15667;52.376;9.708;2023-04-06T00:26:53;19.00;;;10.18;;
28437;SDS011;15667;52.376;9.708;2023-04-06T00:29:20;20.05;;;10.45;;
28437;SDS011;15667;52.376;9.708;2023-04-06T00:31:45;14.40;;;9.07;;
28437;SDS011;15667;52.376;9.708;2023-04-06T00:34:13;17.17;;;10.13;;
28437;SDS011;15667;52.376;9.708;2023-04-06T00:36:40;16.10;;;9.68;;
28437;SDS011;15667;52.376;9.708;2023-04-06T00:39:07;17.50;;;10.02;;
28437;SDS011;15667;52.376;9.708;2023-04-06T00:41:45;17.63;;;10.48;;
28437;SDS011;15667;52.376;9.708;2023-04-06T00:44:25;17.48;;;10.45;;
28437;SDS011;15667;52.376;9.708;2023-04-06T00:46:58;14.38;;;8.82;;
28437;SDS011;15667;52.376;9.708;2023-04-06T00:49:24;17.70;;;10.15;;
28437;SDS011;15667;52.376;9.708;2023-04-06T00:51:49;14.70;;;9.68;;
28437;SDS011;15667;52.376;9.708;2023-04-06T00:54:15;16.50;;;9.55;;
28437;SDS011;15667;52.376;9.708;2023-04-06T00:56:41;15.10;;;9.00;;
28437;SDS011;15667;52.376;9.708;2023-04-06T00:59:08;19.42;;;9.75;;
28437;SDS011;15667;52.376;9.708;2023-04-06T01:01:34;16.52;;;8.73;;
28437;SDS011;15667;52.376;9.708;2023-04-06T01:04:00;15.32;;;9.40;;
28437;SDS011;15667;52.376;9.708;2023-04-06T01:06:27;16.30;;;9.57;;
28437;SDS011;15667;52.376;9.708;2023-04-06T01:08:53;14.00;;;7.85;;
28437;SDS011;15667;52.376;9.708;2023-04-06T01:11:20;15.40;;;9.20;;
28437;SDS011;15667;52.376;9.708;2023-04-06T01:13:45;15.48;;;8.93;;
28437;SDS011;15667;52.376;9.708;2023-04-06T01:16:11;15.82;;;9.10;;
28437;SDS011;15667;52.376;9.708;2023-04-06T01:18:37;14.23;;;8.77;;
28437;SDS011;15667;52.376;9.708;2023-04-06T01:21:03;15.15;;;8.90;;
28437;SDS011;15667;52.376;9.708;2023-04-06T01:23:29;16.88;;;9.00;;
28437;SDS011;15667;52.376;9.708;2023-04-06T01:25:55;17.73;;;8.52;;
28437;SDS011;15667;52.376;9.708;2023-04-06T01:28:20;17.20;;;8.63;;
28437;SDS011;15667;52.376;9.708;2023-04-06T01:30:50;16.08;;;8.75;;
28437;SDS011;15667;52.376;9.708;2023-04-06T01:33:15;17.88;;;8.93;;
28437;SDS011;15667;52.376;9.708;2023-04-06T01:35:41;15.05;;;8.75;;
28437;SDS011;15667;52.376;9.708;2023-04-06T01:38:07;15.20;;;8.30;;
28437;SDS011;15667;52.376;9.708;2023-04-06T01:40:33;17.42;;;8.65;;
28437;SDS011;15667;52.376;9.708;2023-04-06T01:42:58;15.10;;;9.27;;
28437;SDS011;15667;52.376;9.708;2023-04-06T01:45:24;16.40;;;8.40;;
28437;SDS011;15667;52.376;9.708;2023-04-06T01:47:50;14.45;;;8.63;;
28437;SDS011;15667;52.376;9.708;2023-04-06T01:50:16;15.20;;;9.35;;
28437;SDS011;15667;52.376;9.708;2023-04-06T01:52:41;13.98;;;9.68;;
28437;SDS011;15667;52.376;9.708;2023-04-06T01:55:07;14.05;;;8.45;;
28437;SDS011;15667;52.376;9.708;2023-04-06T01:57:33;18.60;;;9.38;;
28437;SDS011;15667;52.376;9.708;2023-04-06T01:59:59;17.67;;;8.57;;
28437;SDS011;15667;52.376;9.708;2023-04-06T02:02:25;15.75;;;8.60;;
28437;SDS011;15667;52.376;9.708;2023-04-06T02:04:51;19.25;;;8.93;;
28437;SDS011;15667;52.376;9.708;2023-04-06T02:07:16;17.50;;;8.75;;
28437;SDS011;15667;52.376;9.708;2023-04-06T02:09:42;17.90;;;8.15;;
28437;SDS011;15667;52.376;9.708;2023-04-06T02:12:08;13.45;;;7.78;;
28437;SDS011;15667;52.376;9.708;2023-04-06T02:14:33;16.85;;;8.23;;
28437;SDS011;15667;52.376;9.708;2023-04-06T02:16:59;12.98;;;7.53;;
28437;SDS011;15667;52.376;9.708;2023-04-06T02:19:25;15.75;;;8.13;;
28437;SDS011;15667;52.376;9.708;2023-04-06T02:21:51;12.85;;;7.80;;
28437;SDS011;15667;52.376;9.708;2023-04-06T02:24:16;14.55;;;8.32;;
28437;SDS011;15667;52.376;9.708;2023-04-06T02:26:42;12.23;;;7.25;;
28437;SDS011;15667;52.376;9.708;2023-04-06T02:29:08;12.00;;;7.15;;
28437;SDS011;15667;52.376;9.708;2023-04-06T02:31:33;14.40;;;8.07;;
28437;SDS011;15667;52.376;9.708;2023-04-06T02:33:59;12.57;;;7.03;;
28437;SDS011;15667;52.376;9.708;2023-04-06T02:36:24;13.85;;;7.22;;
28437;SDS011;15667;52.376;9.708;2023-04-06T02:38:51;13.63;;;6.90;;
28437;SDS011;15667;52.376;9.708;2023-04-06T02:41:16;14.02;;;6.88;;
28437;SDS011;15667;52.376;9.708;2023-04-06T02:43:42;14.65;;;6.97;;
28437;SDS011;15667;52.376;9.708;2023-04-06T02:46:08;12.18;;;6.97;;
28437;SDS011;15667;52.376;9.708;2023-04-06T02:48:33;11.98;;;7.28;;
28437;SDS011;15667;52.376;9.708;2023-04-06T02:51:01;15.50;;;7.38;;
28437;SDS011;15667;52.376;9.708;2023-04-06T02:53:26;11.40;;;7.13;;
28437;SDS011;15667;52.376;9.708;2023-04-06T02:55:52;15.65;;;7.93;;
28437;SDS011;15667;52.376;9.708;2023-04-06T02:58:18;14.35;;;7.50;;
28437;SDS011;15667;52.376;9.708;2023-04-06T03:00:44;12.98;;;7.78;;
28437;SDS011;15667;52.376;9.708;2023-04-06T03:03:10;11.60;;;7.18;;
28437;SDS011;15667;52.376;9.708;2023-04-06T03:05:36;15.05;;;7.88;;
28437;SDS011;15667;52.376;9.708;2023-04-06T03:08:02;15.07;;;7.72;;
28437;SDS011;15667;52.376;9.708;2023-04-06T03:10:27;13.38;;;7.47;;
28437;SDS011;15667;52.376;9.708;2023-04-06T03:12:53;13.38;;;7.55;;
28437;SDS011;15667;52.376;9.708;2023-04-06T03:15:18;12.27;;;7.30;;
28437;SDS011;15667;52.376;9.708;2023-04-06T03:17:44;15.10;;;7.75;;
28437;SDS011;15667;52.376;9.708;2023-04-06T03:20:10;15.20;;;7.45;;
28437;SDS011;15667;52.376;9.708;2023-04-06T03:22:36;12.60;;;7.57;;
28437;SDS011;15667;52.376;9.708;2023-04-06T03:25:02;12.30;;;7.68;;
28437;SDS011;15667;52.376;9.708;2023-04-06T03:27:28;15.07;;;7.95;;
28437;SDS011;15667;52.376;9.708;2023-04-06T03:29:53;14.05;;;7.50;;
28437;SDS011;15667;52.376;9.708;2023-04-06T03:32:19;12.07;;;7.45;;
28437;SDS011;15667;52.376;9.708;2023-04-06T03:34:45;15.15;;;7.60;;
28437;SDS011;15667;52.376;9.708;2023-04-06T03:37:10;17.20;;;7.50;;
28437;SDS011;15667;52.376;9.708;2023-04-06T03:39:36;14.07;;;6.82;;
28437;SDS011;15667;52.376;9.708;2023-04-06T03:42:02;13.68;;;6.97;;
28437;SDS011;15667;52.376;9.708;2023-04-06T03:44:27;13.23;;;7.60;;
28437;SDS011;15667;52.376;9.708;2023-04-06T03:46:53;11.30;;;7.30;;
28437;SDS011;15667;52.376;9.708;2023-04-06T03:49:19;17.38;;;7.20;;
28437;SDS011;15667;52.376;9.708;2023-04-06T03:51:45;12.43;;;6.82;;
28437;SDS011;15667;52.376;9.708;2023-04-06T03:54:10;11.18;;;6.97;;
28437;SDS011;15667;52.376;9.708;2023-04-06T03:56:36;15.65;;;7.75;;
28437;SDS011;15667;52.376;9.708;2023-04-06T03:59:02;15.02;;;7.53;;
28437;SDS011;15667;52.376;9.708;2023-04-06T04:01:27;14.25;;;7.10;;
28437;SDS011;15667;52.376;9.708;2023-04-06T04:03:53;15.13;;;6.68;;
28437;SDS011;15667;52.376;9.708;2023-04-06T04:06:19;12.18;;;7.22;;
28437;SDS011;15667;52.376;9.708;2023-04-06T04:08:44;18.65;;;8.52;;
28437;SDS011;15667;52.376;9.708;2023-04-06T04:11:10;12.90;;;7.15;;
28437;SDS011;15667;52.376;9.708;2023-04-06T04:13:36;11.75;;;7.32;;
28437;SDS011;15667;52.376;9.708;2023-04-06T04:16:02;12.30;;;7.47;;
28437;SDS011;15667;52.376;9.708;2023-04-06T04:18:27;16.50;;;7.72;;
28437;SDS011;15667;52.376;9.708;2023-04-06T04:20:53;15.82;;;7.50;;
28437;SDS011;15667;52.376;9.708;2023-04-06T04:23:19;13.02;;;7.55;;
28437;SDS011;15667;52.376;9.708;2023-04-06T04:25:44;17.95;;;7.80;;
28437;SDS011;15667;52.376;9.708;2023-04-06T04:28:10;12.98;;;7.07;;
28437;SDS011;15667;52.376;9.708;2023-04-06T04:30:36;13.60;;;7.55;;
28437;SDS011;15667;52.376;9.708;2023-04-06T04:33:02;15.45;;;7.65;;
28437;SDS011;15667;52.376;9.708;2023-04-06T04:35:27;12.10;;;7.57;;
28437;SDS011;15667;52.376;9.708;2023-04-06T04:37:53;16.40;;;7.72;;
28437;SDS011;15667;52.376;9.708;2023-04-06T04:40:19;14.27;;;7.60;;
28437;SDS011;15667;52.376;9.708;2023-04-06T04:42:45;16.92;;;7.82;;
28437;SDS011;15667;52.376;9.708;2023-04-06T04:45:11;16.67;;;7.88;;
28437;SDS011;15667;52.376;9.708;2023-04-06T04:47:37;15.85;;;7.65;;
28437;SDS011;15667;52.376;9.708;2023-04-06T04:50:03;12.50;;;7.65;;
28437;SDS011;15667;52.376;9.708;2023-04-06T04:52:32;12.10;;;7.20;;
28437;SDS011;15667;52.376;9.708;2023-04-06T04:54:58;11.88;;;7.10;;
28437;SDS011;15667;52.376;9.708;2023-04-06T04:57:24;14.15;;;7.65;;
28437;SDS011;15667;52.376;9.708;2023-04-06T04:59:49;11.10;;;6.60;;
28437;SDS011;15667;52.376;9.708;2023-04-06T05:02:16;14.30;;;6.88;;
28437;SDS011;15667;52.376;9.708;2023-04-06T05:04:41;13.52;;;8.20;;
28437;SDS011;15667;52.376;9.708;2023-04-06T05:07:07;15.18;;;7.57;;
28437;SDS011;15667;52.376;9.708;2023-04-06T05:09:34;18.13;;;7.25;;
28437;SDS011;15667;52.376;9.708;2023-04-06T05:12:00;16.55;;;7.55;;
28437;SDS011;15667;52.376;9.708;2023-04-06T05:14:26;14.70;;;7.60;;
28437;SDS011;15667;52.376;9.708;2023-04-06T05:16:55;13.93;;;7.25;;
28437;SDS011;15667;52.376;9.708;2023-04-06T05:19:21;11.73;;;7.43;;
28437;SDS011;15667;52.376;9.708;2023-04-06T05:21:47;13.10;;;7.28;;
28437;SDS011;15667;52.376;9.708;2023-04-06T05:24:12;12.68;;;7.20;;
28437;SDS011;15667;52.376;9.708;2023-04-06T05:26:38;17.15;;;7.60;;
28437;SDS011;15667;52.376;9.708;2023-04-06T05:29:04;12.52;;;7.35;;
28437;SDS011;15667;52.376;9.708;2023-04-06T05:31:30;13.85;;;7.75;;
28437;SDS011;15667;52.376;9.708;2023-04-06T05:33:58;16.77;;;7.88;;
28437;SDS011;15667;52.376;9.708;2023-04-06T05:36:24;12.70;;;7.72;;
28437;SDS011;15667;52.376;9.708;2023-04-06T05:39:05;12.48;;;7.68;;
28437;SDS011;15667;52.376;9.708;2023-04-06T05:42:07;14.60;;;7.68;;
28437;SDS011;15667;52.376;9.708;2023-04-06T05:44:46;12.35;;;7.10;;
28437;SDS011;15667;52.376;9.708;2023-04-06T05:47:31;17.63;;;6.72;;
28437;SDS011;15667;52.376;9.708;2023-04-06T05:50:01;11.23;;;7.53;;
28437;SDS011;15667;52.376;9.708;2023-04-06T05:52:39;15.68;;;7.40;;
28437;SDS011;15667;52.376;9.708;2023-04-06T05:55:13;16.98;;;7.35;;
28437;SDS011;15667;52.376;9.708;2023-04-06T05:57:42;14.77;;;6.78;;
28437;SDS011;15667;52.376;9.708;2023-04-06T06:00:12;17.02;;;7.03;;
28437;SDS011;15667;52.376;9.708;2023-04-06T06:02:38;14.02;;;7.22;;
28437;SDS011;15667;52.376;9.708;2023-04-06T06:05:16;14.90;;;7.05;;
28437;SDS011;15667;52.376;9.708;2023-04-06T06:07:58;13.25;;;7.20;;
28437;SDS011;15667;52.376;9.708;2023-04-06T06:10:27;13.85;;;7.13;;
28437;SDS011;15667;52.376;9.708;2023-04-06T06:13:11;10.55;;;7.13;;
28437;SDS011;15667;52.376;9.708;2023-04-06T06:18:32;13.05;;;6.95;;
28437;SDS011;15667;52.376;9.708;2023-04-06T06:21:22;17.23;;;7.50;;
28437;SDS011;15667;52.376;9.708;2023-04-06T06:24:03;14.48;;;6.85;;
28437;SDS011;15667;52.376;9.708;2023-04-06T06:26:30;15.25;;;7.85;;
28437;SDS011;15667;52.376;9.708;2023-04-06T06:29:25;12.50;;;7.35;;
28437;SDS011;15667;52.376;9.708;2023-04-06T06:32:06;15.48;;;7.47;;
28437;SDS011;15667;52.376;9.708;2023-04-06T06:34:34;14.07;;;7.10;;
28437;SDS011;15667;52.376;9.708;2023-04-06T06:37:00;12.27;;;7.13;;
28437;SDS011;15667;52.376;9.708;2023-04-06T06:39:27;12.65;;;6.82;;
28437;SDS011;15667;52.376;9.708;2023-04-06T06:41:53;11.15;;;6.60;;
28437;SDS011;15667;52.376;9.708;2023-04-06T06:44:20;14.13;;;7.10;;
28437;SDS011;15667;52.376;9.708;2023-04-06T06:46:55;11.43;;;7.03;;
28437;SDS011;15667;52.376;9.708;2023-04-06T06:49:29;11.90;;;6.93;;
28437;SDS011;15667;52.376;9.708;2023-04-06T06:51:55;12.95;;;6.72;;
28437;SDS011;15667;52.376;9.708;2023-04-06T06:54:20;13.55;;;6.82;;
28437;SDS011;15667;52.376;9.708;2023-04-06T07:03:31;14.40;;;7.22;;
28437;SDS011;15667;52.376;9.708;2023-04-06T07:06:22;10.65;;;6.93;;
28437;SDS011;15667;52.376;9.708;2023-04-06T07:08:47;11.07;;;6.95;;
28437;SDS011;15667;52.376;9.708;2023-04-06T07:11:13;9.48;;;6.20;;
28437;SDS011;15667;52.376;9.708;2023-04-06T07:13:39;10.20;;;5.88;;
28437;SDS011;15667;52.376;9.708;2023-04-06T07:16:04;10.27;;;6.65;;
28437;SDS011;15667;52.376;9.708;2023-04-06T07:21:46;12.68;;;6.32;;
28437;SDS011;15667;52.376;9.708;2023-04-06T07:24:11;11.15;;;6.82;;
28437;SDS011;15667;52.376;9.708;2023-04-06T07:26:37;14.80;;;7.30;;
28437;SDS011;15667;52.376;9.708;2023-04-06T07:29:03;13.27;;;6.88;;
28437;SDS011;15667;52.376;9.708;2023-04-06T07:31:31;10.98;;;6.18;;
28437;SDS011;15667;52.376;9.708;2023-04-06T07:34:01;10.55;;;6.18;;
28437;SDS011;15667;52.376;9.708;2023-04-06T07:36:27;10.88;;;6.47;;
28437;SDS011;15667;52.376;9.708;2023-04-06T07:38:52;13.18;;;6.78;;
28437;SDS011;15667;52.376;9.708;2023-04-06T07:41:18;11.15;;;6.50;;
28437;SDS011;15667;52.376;9.708;2023-04-06T07:43:46;11.15;;;6.47;;
28437;SDS011;15667;52.376;9.708;2023-04-06T07:46:13;11.73;;;6.32;;
28437;SDS011;15667;52.376;9.708;2023-04-06T07:48:40;12.02;;;6.93;;
28437;SDS011;15667;52.376;9.708;2023-04-06T07:51:06;8.63;;;5.93;;
28437;SDS011;15667;52.376;9.708;2023-04-06T07:53:33;11.88;;;6.93;;
28437;SDS011;15667;52.376;9.708;2023-04-06T07:55:59;11.00;;;6.90;;
28437;SDS011;15667;52.376;9.708;2023-04-06T07:58:25;11.75;;;6.60;;
28437;SDS011;15667;52.376;9.708;2023-04-06T08:00:52;9.57;;;6.55;;
28437;SDS011;15667;52.376;9.708;2023-04-06T08:03:19;8.93;;;5.93;;
28437;SDS011;15667;52.376;9.708;2023-04-06T08:05:46;13.27;;;6.82;;
28437;SDS011;15667;52.376;9.708;2023-04-06T08:08:12;14.10;;;6.03;;
28437;SDS011;15667;52.376;9.708;2023-04-06T08:10:37;10.00;;;6.22;;
28437;SDS011;15667;52.376;9.708;2023-04-06T08:13:03;10.82;;;6.95;;
28437;SDS011;15667;52.376;9.708;2023-04-06T08:15:29;11.63;;;6.10;;
28437;SDS011;15667;52.376;9.708;2023-04-06T08:17:54;11.93;;;6.68;;
28437;SDS011;15667;52.376;9.708;2023-04-06T08:20:22;13.27;;;6.40;;
28437;SDS011;15667;52.376;9.708;2023-04-06T08:22:47;11.02;;;6.47;;
28437;SDS011;15667;52.376;9.708;2023-04-06T08:25:13;11.18;;;5.90;;
28437;SDS011;15667;52.376;9.708;2023-04-06T08:27:39;10.90;;;6.05;;
28437;SDS011;15667;52.376;9.708;2023-04-06T08:30:04;10.75;;;6.68;;
28437;SDS011;15667;52.376;9.708;2023-04-06T08:36:08;12.02;;;6.80;;
28437;SDS011;15667;52.376;9.708;2023-04-06T08:38:35;14.52;;;6.30;;
28437;SDS011;15667;52.376;9.708;2023-04-06T08:41:08;9.38;;;6.32;;
28437;SDS011;15667;52.376;9.708;2023-04-06T08:43:36;12.30;;;6.20;;
28437;SDS011;15667;52.376;9.708;2023-04-06T08:46:11;11.80;;;6.45;;
28437;SDS011;15667;52.376;9.708;2023-04-06T08:48:41;13.00;;;6.75;;
28437;SDS011;15667;52.376;9.708;2023-04-06T08:51:10;10.65;;;6.07;;
28437;SDS011;15667;52.376;9.708;2023-04-06T08:53:37;14.18;;;6.10;;
28437;SDS011;15667;52.376;9.708;2023-04-06T08:56:03;11.82;;;6.28;;
28437;SDS011;15667;52.376;9.708;2023-04-06T08:58:34;10.52;;;6.55;;
28437;SDS011;15667;52.376;9.708;2023-04-06T09:01:03;10.60;;;5.90;;
28437;SDS011;15667;52.376;9.708;2023-04-06T09:03:35;10.68;;;6.13;;
28437;SDS011;15667;52.376;9.708;2023-04-06T09:06:05;9.52;;;6.07;;
28437;SDS011;15667;52.376;9.708;2023-04-06T09:08:35;12.60;;;6.25;;
28437;SDS011;15667;52.376;9.708;2023-04-06T09:11:03;10.15;;;5.88;;
28437;SDS011;15667;52.376;9.708;2023-04-06T09:13:30;10.45;;;6.50;;
28437;SDS011;15667;52.376;9.708;2023-04-06T09:16:03;9.57;;;5.75;;
28437;SDS011;15667;52.376;9.708;2023-04-06T09:18:31;9.40;;;5.68;;
28437;SDS011;15667;52.376;9.708;2023-04-06T09:21:01;10.23;;;5.95;;
28437;SDS011;15667;52.376;9.708;2023-04-06T09:23:28;10.93;;;6.07;;
28437;SDS011;15667;52.376;9.708;2023-04-06T09:28:49;11.90;;;5.95;;
28437;SDS011;15667;52.376;9.708;2023-04-06T09:33:47;13.27;;;5.68;;
28437;SDS011;15667;52.376;9.708;2023-04-06T09:36:13;11.55;;;6.05;;
28437;SDS011;15667;52.376;9.708;2023-04-06T09:39:00;12.40;;;5.82;;
28437;SDS011;15667;52.376;9.708;2023-04-06T09:41:28;11.00;;;5.70;;
28437;SDS011;15667;52.376;9.708;2023-04-06T09:44:08;11.68;;;5.72;;
28437;SDS011;15667;52.376;9.708;2023-04-06T09:46:35;10.38;;;5.55;;
28437;SDS011;15667;52.376;9.708;2023-04-06T09:49:04;9.75;;;5.57;;
28437;SDS011;15667;52.376;9.708;2023-04-06T09:51:36;13.07;;;6.20;;
28437;SDS011;15667;52.376;9.708;2023-04-06T09:54:03;11.32;;;5.47;;
28437;SDS011;15667;52.376;9.708;2023-04-06T09:56:31;10.70;;;5.35;;
28437;SDS011;15667;52.376;9.708;2023-04-06T09:59:12;12.85;;;6.18;;
28437;SDS011;15667;52.376;9.708;2023-04-06T10:01:44;8.48;;;5.65;;
28437;SDS011;15667;52.376;9.708;2023-04-06T10:06:43;9.90;;;5.35;;
28437;SDS011;15667;52.376;9.708;2023-04-06T10:09:12;8.45;;;5.38;;
28437;SDS011;15667;52.376;9.708;2023-04-06T10:11:39;9.10;;;5.43;;
28437;SDS011;15667;52.376;9.708;2023-04-06T10:14:05;10.73;;;5.72;;
28437;SDS011;15667;52.376;9.708;2023-04-06T10:16:31;11.45;;;5.30;;
28437;SDS011;15667;52.376;9.708;2023-04-06T10:19:02;9.77;;;5.32;;
28437;SDS011;15667;52.376;9.708;2023-04-06T10:21:35;10.52;;;5.28;;
28437;SDS011;15667;52.376;9.708;2023-04-06T10:24:06;11.63;;;5.78;;
28437;SDS011;15667;52.376;9.708;2023-04-06T10:26:35;10.23;;;5.18;;
28437;SDS011;15667;52.376;9.708;2023-04-06T10:29:05;11.30;;;6.40;;
28437;SDS011;15667;52.376;9.708;2023-04-06T10:31:31;11.73;;;6.13;;
28437;SDS011;15667;52.376;9.708;2023-04-06T10:33:57;8.93;;;5.40;;
28437;SDS011;15667;52.376;9.708;2023-04-06T10:36:25;12.80;;;5.90;;
28437;SDS011;15667;52.376;9.708;2023-04-06T10:39:02;10.10;;;5.82;;
28437;SDS011;15667;52.376;9.708;2023-04-06T10:44:17;11.80;;;6.32;;
28437;SDS011;15667;52.376;9.708;2023-04-06T10:46:54;10.40;;;5.78;;
28437;SDS011;15667;52.376;9.708;2023-04-06T10:49:27;14.18;;;6.35;;
28437;SDS011;15667;52.376;9.708;2023-04-06T10:51:53;12.20;;;6.60;;
28437;SDS011;15667;52.376;9.708;2023-04-06T10:54:21;13.27;;;7.15;;
28437;SDS011;15667;52.376;9.708;2023-04-06T10:56:48;12.07;;;6.57;;
28437;SDS011;15667;52.376;9.708;2023-04-06T10:59:18;14.00;;;6.70;;
28437;SDS011;15667;52.376;9.708;2023-04-06T11:01:48;12.57;;;7.25;;
28437;SDS011;15667;52.376;9.708;2023-04-06T11:04:17;12.02;;;6.88;;
28437;SDS011;15667;52.376;9.708;2023-04-06T11:06:48;13.48;;;7.53;;
28437;SDS011;15667;52.376;9.708;2023-04-06T11:09:24;15.48;;;7.38;;
28437;SDS011;15667;52.376;9.708;2023-04-06T11:11:50;15.02;;;7.50;;
28437;SDS011;15667;52.376;9.708;2023-04-06T11:14:17;14.80;;;6.90;;
28437;SDS011;15667;52.376;9.708;2023-04-06T11:16:43;13.27;;;6.75;;
28437;SDS011;15667;52.376;9.708;2023-04-06T11:19:12;16.20;;;7.70;;
28437;SDS011;15667;52.376;9.708;2023-04-06T11:21:38;15.82;;;7.40;;
28437;SDS011;15667;52.376;9.708;2023-04-06T11:24:20;16.13;;;7.40;;
28437;SDS011;15667;52.376;9.708;2023-04-06T11:29:20;18.55;;;7.63;;
28437;SDS011;15667;52.376;9.708;2023-04-06T11:31:51;13.55;;;7.20;;
28437;SDS011;15667;52.376;9.708;2023-04-06T11:34:19;16.45;;;7.97;;
28437;SDS011;15667;52.376;9.708;2023-04-06T11:36:47;14.52;;;8.15;;
28437;SDS011;15667;52.376;9.708;2023-04-06T11:39:24;15.05;;;7.20;;
28437;SDS011;15667;52.376;9.708;2023-04-06T11:41:51;13.18;;;7.15;;
28437;SDS011;15667;52.376;9.708;2023-04-06T11:47:05;12.38;;;7.43;;
28437;SDS011;15667;52.376;9.708;2023-04-06T11:49:32;13.68;;;7.57;;
28437;SDS011;15667;52.376;9.708;2023-04-06T11:52:02;15.98;;;7.95;;
28437;SDS011;15667;52.376;9.708;2023-04-06T11:54:38;15.65;;;7.65;;
28437;SDS011;15667;52.376;9.708;2023-04-06T11:57:04;14.05;;;8.00;;
28437;SDS011;15667;52.376;9.708;2023-04-06T11:59:33;17.27;;;8.55;;
28437;SDS011;15667;52.376;9.708;2023-04-06T12:02:01;15.93;;;7.88;;
28437;SDS011;15667;52.376;9.708;2023-04-06T12:04:27;15.00;;;7.93;;
28437;SDS011;15667;52.376;9.708;2023-04-06T12:06:53;15.80;;;7.57;;
28437;SDS011;15667;52.376;9.708;2023-04-06T12:09:19;14.93;;;7.72;;
28437;SDS011;15667;52.376;9.708;2023-04-06T12:11:45;14.80;;;8.02;;
28437;SDS011;15667;52.376;9.708;2023-04-06T12:14:11;15.10;;;8.27;;
28437;SDS011;15667;52.376;9.708;2023-04-06T12:16:38;16.23;;;7.38;;
28437;SDS011;15667;52.376;9.708;2023-04-06T12:19:04;14.45;;;7.43;;
28437;SDS011;15667;52.376;9.708;2023-04-06T12:21:30;15.88;;;7.47;;
28437;SDS011;15667;52.376;9.708;2023-04-06T12:23:59;12.85;;;7.85;;
28437;SDS011;15667;52.376;9.708;2023-04-06T12:26:25;14.43;;;7.72;;
28437;SDS011;15667;52.376;9.708;2023-04-06T12:28:51;15.60;;;7.65;;
28437;SDS011;15667;52.376;9.708;2023-04-06T12:31:22;17.45;;;7.55;;
28437;SDS011;15667;52.376;9.708;2023-04-06T12:33:52;12.88;;;7.72;;
28437;SDS011;15667;52.376;9.708;2023-04-06T12:36:19;14.38;;;7.43;;
28437;SDS011;15667;52.376;9.708;2023-04-06T12:38:56;12.65;;;7.28;;
28437;SDS011;15667;52.376;9.708;2023-04-06T12:41:23;14.73;;;7.68;;
28437;SDS011;15667;52.376;9.708;2023-04-06T12:43:50;14.95;;;8.18;;
28437;SDS011;15667;52.376;9.708;2023-04-06T12:50:02;14.73;;;7.50;;
28437;SDS011;15667;52.376;9.708;2023-04-06T12:52:35;11.63;;;7.18;;
28437;SDS011;15667;52.376;9.708;2023-04-06T12:55:05;14.38;;;7.60;;
28437;SDS011;15667;52.376;9.708;2023-04-06T12:57:31;15.88;;;7.10;;
28437;SDS011;15667;52.376;9.708;2023-04-06T12:59:57;13.77;;;6.55;;
28437;SDS011;15667;52.376;9.708;2023-04-06T13:02:23;14.55;;;7.30;;
28437;SDS011;15667;52.376;9.708;2023-04-06T13:04:49;12.40;;;7.20;;
28437;SDS011;15667;52.376;9.708;2023-04-06T13:07:15;11.85;;;7.20;;
28437;SDS011;15667;52.376;9.708;2023-04-06T13:09:41;13.32;;;7.15;;
28437;SDS011;15667;52.376;9.708;2023-04-06T13:12:06;15.23;;;7.30;;
28437;SDS011;15667;52.376;9.708;2023-04-06T13:14:32;11.88;;;7.18;;
28437;SDS011;15667;52.376;9.708;2023-04-06T13:16:58;11.35;;;6.90;;
28437;SDS011;15667;52.376;9.708;2023-04-06T13:19:24;12.80;;;6.68;;
28437;SDS011;15667;52.376;9.708;2023-04-06T13:21:50;10.77;;;6.15;;
28437;SDS011;15667;52.376;9.708;2023-04-06T13:24:16;9.20;;;5.72;;
28437;SDS011;15667;52.376;9.708;2023-04-06T13:26:41;10.65;;;6.57;;
28437;SDS011;15667;52.376;9.708;2023-04-06T13:29:07;9.95;;;5.82;;
28437;SDS011;15667;52.376;9.708;2023-04-06T13:31:33;12.48;;;6.53;;
28437;SDS011;15667;52.376;9.708;2023-04-06T13:33:59;10.93;;;6.82;;
28437;SDS011;15667;52.376;9.708;2023-04-06T13:36:25;8.98;;;6.35;;
28437;SDS011;15667;52.376;9.708;2023-04-06T13:38:51;10.52;;;6.00;;
28437;SDS011;15667;52.376;9.708;2023-04-06T13:41:21;8.57;;;5.60;;
28437;SDS011;15667;52.376;9.708;2023-04-06T13:43:47;9.90;;;5.93;;
28437;SDS011;15667;52.376;9.708;2023-04-06T13:46:13;11.07;;;6.50;;
28437;SDS011;15667;52.376;9.708;2023-04-06T13:48:39;9.55;;;5.93;;
28437;SDS011;15667;52.376;9.708;2023-04-06T13:51:09;11.63;;;6.45;;
28437;SDS011;15667;52.376;9.708;2023-04-06T13:53:39;10.55;;;6.15;;
28437;SDS011;15667;52.376;9.708;2023-04-06T13:56:05;12.50;;;6.13;;
28437;SDS011;15667;52.376;9.708;2023-04-06T13:58:32;11.10;;;6.55;;
28437;SDS011;15667;52.376;9.708;2023-04-06T14:01:02;9.57;;;5.57;;
28437;SDS011;15667;52.376;9.708;2023-04-06T14:03:29;11.65;;;5.93;;
28437;SDS011;15667;52.376;9.708;2023-04-06T14:05:54;11.80;;;6.00;;
28437;SDS011;15667;52.376;9.708;2023-04-06T14:08:20;10.52;;;5.45;;
28437;SDS011;15667;52.376;9.708;2023-04-06T14:10:46;9.90;;;6.00;;
28437;SDS011;15667;52.376;9.708;2023-04-06T14:13:11;11.48;;;5.72;;
28437;SDS011;15667;52.376;9.708;2023-04-06T14:15:37;9.90;;;5.88;;
28437;SDS011;15667;52.376;9.708;2023-04-06T14:18:03;10.27;;;6.03;;
28437;SDS011;15667;52.376;9.708;2023-04-06T14:20:30;10.43;;;5.88;;
28437;SDS011;15667;52.376;9.708;2023-04-06T14:22:56;9.63;;;6.43;;
28437;SDS011;15667;52.376;9.708;2023-04-06T14:25:22;12.18;;;6.13;;
28437;SDS011;15667;52.376;9.708;2023-04-06T14:27:47;10.32;;;6.10;;
28437;SDS011;15667;52.376;9.708;2023-04-06T14:30:13;10.77;;;6.45;;
28437;SDS011;15667;52.376;9.708;2023-04-06T14:32:39;10.50;;;5.85;;
28437;SDS011;15667;52.376;9.708;2023-04-06T14:35:05;11.35;;;5.78;;
28437;SDS011;15667;52.376;9.708;2023-04-06T14:37:31;10.85;;;6.28;;
28437;SDS011;15667;52.376;9.708;2023-04-06T14:39:57;10.13;;;6.55;;
28437;SDS011;15667;52.376;9.708;2023-04-06T14:42:23;10.98;;;5.88;;
28437;SDS011;15667;52.376;9.708;2023-04-06T14:44:48;10.35;;;6.47;;
28437;SDS011;15667;52.376;9.708;2023-04-06T14:47:15;11.30;;;6.30;;
28437;SDS011;15667;52.376;9.708;2023-04-06T14:49:45;11.75;;;6.40;;
28437;SDS011;15667;52.376;9.708;2023-04-06T14:52:12;9.82;;;6.03;;
28437;SDS011;15667;52.376;9.708;2023-04-06T14:54:38;13.93;;;6.75;;
28437;SDS011;15667;52.376;9.708;2023-04-06T14:57:03;11.85;;;6.13;;
28437;SDS011;15667;52.376;9.708;2023-04-06T14:59:29;14.88;;;6.60;;
28437;SDS011;15667;52.376;9.708;2023-04-06T15:01:55;13.43;;;6.75;;
28437;SDS011;15667;52.376;9.708;2023-04-06T15:04:20;12.32;;;6.65;;
28437;SDS011;15667;52.376;9.708;2023-04-06T15:06:46;13.25;;;7.03;;
28437;SDS011;15667;52.376;9.708;2023-04-06T15:09:12;12.95;;;6.22;;
28437;SDS011;15667;52.376;9.708;2023-04-06T15:11:37;17.98;;;7.07;;
28437;SDS011;15667;52.376;9.708;2023-04-06T15:14:03;12.38;;;6.00;;